createdAt,value
2022-12-03T00:00:12.942Z,16.27
2022-12-03T00:02:41.451Z,20.97
2022-12-03T00:05:11.598Z,18.00
2022-12-03T00:07:39.458Z,13.40
2022-12-03T00:10:08.749Z,19.27
2022-12-03T00:12:36.519Z,16.40
2022-12-03T00:15:04.761Z,16.60
2022-12-03T00:17:32.483Z,16.73
2022-12-03T00:20:00.288Z,16.03
2022-12-03T00:22:29.382Z,17.90
2022-12-03T00:24:57.125Z,21.17
2022-12-03T00:27:24.797Z,18.83
2022-12-03T00:29:52.543Z,16.90
2022-12-03T00:32:20.277Z,16.83
2022-12-03T00:34:48.010Z,16.60
2022-12-03T00:37:15.783Z,17.30
2022-12-03T00:39:44.843Z,24.37
2022-12-03T00:42:12.591Z,19.07
2022-12-03T00:44:40.290Z,18.67
2022-12-03T00:47:08.125Z,16.43
2022-12-03T00:49:35.932Z,17.93
2022-12-03T00:52:03.682Z,20.27
2022-12-03T00:54:32.227Z,18.93
2022-12-03T00:57:01.521Z,19.70
2022-12-03T00:59:29.213Z,17.70
2022-12-03T01:01:57.141Z,18.27
2022-12-03T01:04:25.000Z,19.33
2022-12-03T01:06:52.957Z,18.33
2022-12-03T01:09:20.728Z,18.37
2022-12-03T01:11:48.454Z,18.43
2022-12-03T01:14:19.027Z,16.90
2022-12-03T01:16:47.280Z,17.57
2022-12-03T01:19:16.422Z,18.20
2022-12-03T01:21:44.893Z,16.57
2022-12-03T01:24:13.173Z,17.20
2022-12-03T01:26:41.307Z,15.93
2022-12-03T01:29:09.056Z,22.27
2022-12-03T01:31:55.453Z,16.33
2022-12-03T01:34:23.178Z,19.67
2022-12-03T01:36:52.385Z,15.30
2022-12-03T01:39:20.558Z,20.10
2022-12-03T01:41:49.718Z,22.20
2022-12-03T01:44:22.066Z,16.43
2022-12-03T01:46:53.013Z,15.93
2022-12-03T01:49:23.595Z,16.93
2022-12-03T01:51:53.691Z,18.13
2022-12-03T01:54:26.401Z,18.07
2022-12-03T01:56:56.197Z,15.57
2022-12-03T01:59:31.048Z,18.03
2022-12-03T02:02:01.036Z,14.97
2022-12-03T02:04:28.941Z,18.30
2022-12-03T02:06:56.775Z,16.77
2022-12-03T02:09:24.507Z,18.60
2022-12-03T02:11:53.278Z,17.40
2022-12-03T02:14:23.039Z,12.60
2022-12-03T02:16:50.787Z,16.97
2022-12-03T02:19:25.251Z,15.40
2022-12-03T02:22:01.070Z,17.50
2022-12-03T02:24:37.611Z,16.93
2022-12-03T02:27:07.274Z,16.67
2022-12-03T02:29:34.973Z,18.27
2022-12-03T02:32:02.750Z,16.53
2022-12-03T02:34:35.617Z,17.80
2022-12-03T02:37:05.258Z,17.07
2022-12-03T02:39:34.032Z,16.77
2022-12-03T02:42:19.313Z,17.87
2022-12-03T02:44:48.443Z,17.77
2022-12-03T02:47:16.872Z,15.97
2022-12-03T02:49:44.879Z,15.77
2022-12-03T02:52:12.866Z,17.77
2022-12-03T02:54:40.657Z,17.33
2022-12-03T02:57:08.539Z,18.70
2022-12-03T02:59:36.432Z,17.37
2022-12-03T03:02:05.675Z,14.87
2022-12-03T03:04:33.504Z,16.87
2022-12-03T03:07:01.328Z,17.43
2022-12-03T03:09:29.183Z,15.77
2022-12-03T03:11:57.004Z,15.73
2022-12-03T03:14:24.802Z,18.63
2022-12-03T03:16:56.151Z,21.20
2022-12-03T03:19:26.862Z,19.40
2022-12-03T03:21:55.393Z,16.57
2022-12-03T03:24:24.263Z,15.47
2022-12-03T03:26:52.082Z,16.10
2022-12-03T03:29:20.110Z,15.97
2022-12-03T03:31:48.469Z,15.87
2022-12-03T03:34:17.503Z,17.10
2022-12-03T03:36:47.295Z,20.23
2022-12-03T03:39:15.317Z,17.93
2022-12-03T03:41:46.647Z,16.97
2022-12-03T03:44:15.092Z,17.10
2022-12-03T03:46:43.674Z,15.73
2022-12-03T03:49:11.905Z,20.10
2022-12-03T03:51:39.995Z,17.83
2022-12-03T03:54:09.526Z,18.73
2022-12-03T03:56:37.346Z,15.43
2022-12-03T03:59:05.482Z,19.77
2022-12-03T04:01:33.379Z,19.87
2022-12-03T04:04:01.483Z,18.23
2022-12-03T04:06:29.688Z,18.73
2022-12-03T04:08:57.409Z,18.07
2022-12-03T04:11:43.937Z,19.57
2022-12-03T04:14:11.644Z,19.70
2022-12-03T04:16:39.339Z,19.70
2022-12-03T04:19:07.056Z,22.30
2022-12-03T04:21:52.414Z,16.57
2022-12-03T04:24:20.084Z,19.17
2022-12-03T04:27:06.763Z,17.57
2022-12-03T04:29:34.525Z,16.87
2022-12-03T04:32:19.820Z,22.30
2022-12-03T04:35:05.234Z,19.90
2022-12-03T04:37:33.035Z,18.57
2022-12-03T04:40:00.726Z,17.83
2022-12-03T04:42:29.821Z,20.70
2022-12-03T04:44:58.404Z,27.20
2022-12-03T04:47:26.100Z,21.03
2022-12-03T04:49:53.824Z,18.07
2022-12-03T04:52:22.185Z,21.30
2022-12-03T04:54:50.005Z,17.60
2022-12-03T04:57:18.248Z,22.20
2022-12-03T04:59:47.373Z,19.40
2022-12-03T05:02:15.112Z,20.47
2022-12-03T05:04:42.855Z,18.43
2022-12-03T05:07:10.638Z,18.43
2022-12-03T05:09:38.360Z,17.57
2022-12-03T05:12:06.520Z,14.83
2022-12-03T05:14:34.227Z,18.93
2022-12-03T05:17:03.366Z,19.27
2022-12-03T05:19:45.012Z,19.77
2022-12-03T05:22:12.756Z,15.17
2022-12-03T05:24:40.467Z,20.80
2022-12-03T05:27:08.193Z,19.57
2022-12-03T05:29:35.926Z,16.70
2022-12-03T05:32:05.140Z,20.17
2022-12-03T05:34:32.944Z,18.37
2022-12-03T05:37:00.661Z,18.33
2022-12-03T05:39:28.367Z,18.33
2022-12-03T05:42:13.531Z,15.37
2022-12-03T05:44:41.268Z,16.23
2022-12-03T05:47:10.330Z,16.07
2022-12-03T05:49:38.076Z,19.47
2022-12-03T05:52:06.142Z,19.43
2022-12-03T05:54:33.895Z,17.43
2022-12-03T05:57:01.581Z,18.23
2022-12-03T05:59:29.311Z,19.27
2022-12-03T06:01:57.029Z,15.40
2022-12-03T06:04:26.060Z,18.40
2022-12-03T06:06:53.768Z,19.00
2022-12-03T06:09:21.426Z,18.70
2022-12-03T06:11:53.422Z,16.20
2022-12-03T06:14:21.158Z,17.63
2022-12-03T06:16:48.873Z,18.57
2022-12-03T06:19:16.589Z,17.43
2022-12-03T06:21:45.661Z,18.90
2022-12-03T06:24:13.463Z,21.27
2022-12-03T06:26:41.201Z,15.70
2022-12-03T06:29:08.882Z,18.73
2022-12-03T06:31:36.704Z,21.43
2022-12-03T06:34:04.463Z,19.63
2022-12-03T06:36:32.192Z,18.67
2022-12-03T06:39:01.237Z,18.53
2022-12-03T06:41:28.942Z,20.67
2022-12-03T06:43:56.657Z,22.50
2022-12-03T06:46:24.941Z,19.97
2022-12-03T06:48:52.723Z,19.10
2022-12-03T06:51:20.810Z,19.60
2022-12-03T06:53:48.520Z,20.20
2022-12-03T06:56:21.491Z,18.87
2022-12-03T06:58:50.116Z,21.43
2022-12-03T07:01:17.860Z,22.33
2022-12-03T07:03:45.608Z,20.63
2022-12-03T07:06:13.859Z,21.20
2022-12-03T07:08:41.674Z,23.03
2022-12-03T07:11:30.064Z,24.23
2022-12-03T07:14:05.093Z,19.60
2022-12-03T07:16:33.637Z,22.00
2022-12-03T07:19:01.393Z,22.37
2022-12-03T07:21:29.084Z,23.63
2022-12-03T07:23:56.818Z,22.20
2022-12-03T07:26:24.540Z,19.70
2022-12-03T07:28:52.273Z,21.23
2022-12-03T07:31:21.406Z,21.93
2022-12-03T07:33:49.175Z,22.50
2022-12-03T07:36:16.908Z,23.07
2022-12-03T07:38:44.620Z,18.93
2022-12-03T07:41:27.404Z,23.70
2022-12-03T07:43:55.155Z,18.70
2022-12-03T07:46:24.324Z,21.83
2022-12-03T07:48:52.107Z,19.67
2022-12-03T07:51:19.836Z,19.93
2022-12-03T07:53:47.549Z,20.00
2022-12-03T07:56:15.250Z,20.30
2022-12-03T07:58:42.969Z,21.33
2022-12-03T08:01:11.288Z,19.13
2022-12-03T08:03:42.845Z,33.33
2022-12-03T08:06:10.671Z,24.50
2022-12-03T08:08:38.427Z,18.37
2022-12-03T08:11:06.489Z,18.97
2022-12-03T08:13:36.064Z,19.50
2022-12-03T08:16:17.128Z,17.07
2022-12-03T08:18:46.996Z,22.83
2022-12-03T08:21:16.954Z,19.63
2022-12-03T08:23:45.297Z,23.33
2022-12-03T08:26:20.649Z,21.13
2022-12-03T08:28:48.657Z,22.13
2022-12-03T08:31:19.902Z,20.93
2022-12-03T08:33:51.213Z,19.83
2022-12-03T08:36:22.727Z,21.73
2022-12-03T08:38:53.002Z,22.10
2022-12-03T08:41:42.271Z,21.43
2022-12-03T08:44:25.049Z,20.83
2022-12-03T08:46:58.517Z,16.73
2022-12-03T08:49:27.641Z,18.63
2022-12-03T08:51:58.480Z,19.17
2022-12-03T08:54:26.877Z,18.77
2022-12-03T08:56:54.829Z,21.17
2022-12-03T08:59:27.619Z,20.27
2022-12-03T09:01:55.442Z,18.93
2022-12-03T09:04:28.351Z,17.07
2022-12-03T09:06:56.971Z,19.10
2022-12-03T09:09:25.106Z,18.90
2022-12-03T09:11:53.876Z,17.67
2022-12-03T09:14:22.768Z,26.03
2022-12-03T09:16:51.963Z,16.47
2022-12-03T09:19:19.783Z,22.73
2022-12-03T09:21:48.888Z,14.33
2022-12-03T09:24:16.589Z,18.20
2022-12-03T09:26:44.360Z,18.97
2022-12-03T09:29:12.811Z,15.50
2022-12-03T09:31:41.084Z,15.63
2022-12-03T09:34:09.295Z,16.97
2022-12-03T09:36:37.034Z,15.53
2022-12-03T09:39:06.521Z,18.57
2022-12-03T09:41:34.235Z,16.00
2022-12-03T09:44:04.493Z,19.93
2022-12-03T09:46:33.629Z,21.77
2022-12-03T09:49:01.927Z,18.53
2022-12-03T09:51:33.942Z,34.37
2022-12-03T09:54:02.598Z,20.40
2022-12-03T09:56:32.037Z,22.83
2022-12-03T09:59:00.235Z,22.37
2022-12-03T10:01:30.258Z,19.53
2022-12-03T10:03:58.648Z,22.77
2022-12-03T10:06:26.495Z,20.60
2022-12-03T10:08:55.912Z,20.37
2022-12-03T10:11:26.163Z,22.63
2022-12-03T10:13:57.389Z,18.63
2022-12-03T10:16:25.812Z,19.87
2022-12-03T10:18:56.675Z,19.13
2022-12-03T10:21:26.613Z,18.50
2022-12-03T10:24:22.628Z,18.53
2022-12-03T10:26:52.060Z,17.43
2022-12-03T10:29:25.841Z,20.43
2022-12-03T10:31:58.856Z,14.80
2022-12-03T10:34:30.515Z,20.40
2022-12-03T10:37:13.532Z,21.40
2022-12-03T10:39:56.233Z,19.77
2022-12-03T10:42:25.016Z,19.37
2022-12-03T10:45:09.316Z,20.33
2022-12-03T10:47:37.118Z,23.57
2022-12-03T10:50:07.794Z,19.87
2022-12-03T10:52:35.459Z,21.93
2022-12-03T10:55:03.468Z,25.03
2022-12-03T10:57:31.195Z,22.47
2022-12-03T10:59:59.357Z,20.53
2022-12-03T11:02:28.478Z,20.07
2022-12-03T11:04:56.494Z,19.30
2022-12-03T11:07:26.163Z,24.33
2022-12-03T11:09:55.749Z,20.93
2022-12-03T11:12:26.350Z,22.83
2022-12-03T11:15:08.222Z,22.00
2022-12-03T11:17:51.610Z,19.83
2022-12-03T11:21:02.201Z,20.27
2022-12-03T11:24:03.914Z,26.70
2022-12-03T11:27:09.231Z,20.30
2022-12-03T11:30:10.171Z,20.23
2022-12-03T11:33:23.414Z,25.27
2022-12-03T11:36:16.043Z,22.97
2022-12-03T11:38:53.031Z,17.70
2022-12-03T11:41:24.455Z,19.57
2022-12-03T11:44:17.065Z,25.27
2022-12-03T11:46:47.544Z,22.20
2022-12-03T11:49:26.370Z,20.53
2022-12-03T11:51:54.193Z,18.43
2022-12-03T11:54:24.243Z,18.83
2022-12-03T11:56:53.320Z,21.60
2022-12-03T11:59:21.057Z,18.13
2022-12-03T12:01:48.780Z,21.20
2022-12-03T12:04:32.828Z,21.30
2022-12-03T12:07:01.339Z,20.07
2022-12-03T12:09:51.963Z,19.20
2022-12-03T12:12:22.287Z,21.20
2022-12-03T12:14:50.027Z,19.00
2022-12-03T12:17:32.135Z,18.50
2022-12-03T12:20:23.113Z,18.80
2022-12-03T12:22:51.096Z,17.00
2022-12-03T12:25:40.095Z,19.50
2022-12-03T12:28:08.664Z,20.20
2022-12-03T12:30:36.660Z,20.30
2022-12-03T12:33:20.803Z,21.97
2022-12-03T12:35:50.329Z,19.03
2022-12-03T12:38:19.498Z,17.60
2022-12-03T12:40:49.251Z,21.77
2022-12-03T12:43:25.456Z,17.37
2022-12-03T12:45:55.175Z,23.40
2022-12-03T12:48:25.893Z,19.53
2022-12-03T12:51:00.516Z,17.10
2022-12-03T12:53:30.645Z,20.97
2022-12-03T12:55:59.959Z,19.67
2022-12-03T12:58:31.595Z,17.87
2022-12-03T13:01:00.760Z,16.20
2022-12-03T13:03:33.805Z,16.97
2022-12-03T13:06:03.413Z,18.43
2022-12-03T13:08:33.063Z,19.63
2022-12-03T13:11:02.174Z,18.10
2022-12-03T13:13:43.557Z,17.00
2022-12-03T13:16:16.376Z,17.53
2022-12-03T13:18:47.202Z,20.37
2022-12-03T13:21:22.326Z,17.73
2022-12-03T13:23:51.954Z,18.70
2022-12-03T13:26:36.439Z,18.97
2022-12-03T13:29:12.536Z,19.90
2022-12-03T13:31:43.875Z,19.73
2022-12-03T13:34:17.446Z,17.30
2022-12-03T13:36:53.496Z,21.67
2022-12-03T13:39:28.107Z,24.53
2022-12-03T13:42:13.742Z,23.87
2022-12-03T13:44:46.513Z,23.47
2022-12-03T13:47:16.152Z,20.70
2022-12-03T13:49:52.063Z,24.97
2022-12-03T13:52:24.876Z,20.60
2022-12-03T13:54:53.984Z,25.77
2022-12-03T13:57:21.702Z,20.53
2022-12-03T13:59:49.762Z,25.83
2022-12-03T14:02:17.553Z,24.13
2022-12-03T14:04:45.295Z,21.13
2022-12-03T14:07:13.005Z,23.13
2022-12-03T14:09:42.168Z,26.20
2022-12-03T14:12:35.621Z,23.80
2022-12-03T14:15:05.107Z,25.37
2022-12-03T14:17:33.439Z,23.70
2022-12-03T14:20:01.682Z,23.33
2022-12-03T14:22:29.878Z,24.50
2022-12-03T14:24:59.008Z,25.07
2022-12-03T14:27:27.513Z,24.67
2022-12-03T14:29:55.500Z,23.50
2022-12-03T14:32:23.403Z,23.57
2022-12-03T14:34:51.234Z,25.23
2022-12-03T14:37:19.130Z,23.17
2022-12-03T14:39:46.843Z,24.20
2022-12-03T14:42:16.806Z,21.63
2022-12-03T14:44:46.540Z,22.83
2022-12-03T14:47:15.055Z,24.67
2022-12-03T14:49:42.792Z,24.03
2022-12-03T14:52:12.466Z,28.33
2022-12-03T14:54:42.319Z,25.90
2022-12-03T14:57:11.389Z,22.43
2022-12-03T14:59:41.077Z,27.03
2022-12-03T15:02:09.825Z,29.97
2022-12-03T15:04:37.729Z,26.33
2022-12-03T15:07:05.853Z,28.00
2022-12-03T15:09:33.591Z,29.17
2022-12-03T15:12:01.295Z,33.93
2022-12-03T15:14:29.289Z,29.10
2022-12-03T15:16:58.465Z,42.43
2022-12-03T15:19:26.315Z,38.03
2022-12-03T15:21:54.055Z,33.57
2022-12-03T15:24:21.783Z,49.63
2022-12-03T15:26:52.189Z,40.20
2022-12-03T15:29:20.062Z,44.63
2022-12-03T15:31:47.858Z,47.00
2022-12-03T15:34:22.235Z,50.50
2022-12-03T15:36:50.567Z,41.67
2022-12-03T15:39:18.277Z,48.57
2022-12-03T15:41:46.008Z,51.47
2022-12-03T15:44:13.700Z,82.37
2022-12-03T15:46:41.493Z,60.63
2022-12-03T15:49:09.278Z,52.37
2022-12-03T15:51:38.328Z,50.93
2022-12-03T15:54:06.488Z,48.23
2022-12-03T15:56:37.509Z,54.93
2022-12-03T15:59:05.475Z,51.73
2022-12-03T16:01:33.351Z,49.77
2022-12-03T16:04:01.205Z,49.03
2022-12-03T16:06:28.934Z,50.10
2022-12-03T16:08:57.989Z,52.73
2022-12-03T16:11:25.692Z,52.00
2022-12-03T16:13:53.398Z,45.40
2022-12-03T16:16:21.206Z,52.30
2022-12-03T16:18:48.915Z,44.23
2022-12-03T16:21:18.095Z,45.53
2022-12-03T16:23:47.454Z,44.60
2022-12-03T16:26:16.563Z,48.20
2022-12-03T16:28:44.292Z,48.93
2022-12-03T16:31:12.082Z,47.63
2022-12-03T16:33:39.891Z,41.27
2022-12-03T16:36:08.264Z,46.77
2022-12-03T16:38:36.038Z,37.67
2022-12-03T16:41:03.787Z,40.17
2022-12-03T16:43:38.380Z,35.47
2022-12-03T16:46:20.891Z,43.87
2022-12-03T16:48:49.073Z,42.00
2022-12-03T16:51:19.225Z,39.93
2022-12-03T16:53:47.013Z,34.87
2022-12-03T16:56:15.284Z,42.30
2022-12-03T16:58:44.525Z,59.00
2022-12-03T17:01:12.504Z,33.60
2022-12-03T17:03:40.240Z,38.57
2022-12-03T17:06:08.402Z,39.20
2022-12-03T17:08:36.178Z,31.87
2022-12-03T17:11:04.016Z,32.10
2022-12-03T17:13:31.858Z,35.97
2022-12-03T17:16:01.322Z,35.83
2022-12-03T17:18:29.105Z,31.17
2022-12-03T17:20:56.822Z,36.87
2022-12-03T17:23:24.585Z,31.63
2022-12-03T17:25:52.309Z,39.57
2022-12-03T17:28:20.030Z,36.37
2022-12-03T17:30:47.793Z,34.90
2022-12-03T17:33:16.895Z,33.30
2022-12-03T17:35:45.545Z,35.03
2022-12-03T17:38:13.234Z,35.47
2022-12-03T17:40:40.964Z,34.73
2022-12-03T17:43:08.676Z,36.47
2022-12-03T17:45:36.792Z,35.70
2022-12-03T17:48:04.578Z,32.70
2022-12-03T17:50:33.629Z,33.57
2022-12-03T17:53:01.380Z,36.37
2022-12-03T17:55:38.252Z,36.13
2022-12-03T17:58:10.428Z,37.70
2022-12-03T18:00:38.426Z,33.57
2022-12-03T18:03:06.122Z,32.83
2022-12-03T18:05:35.303Z,33.57
2022-12-03T18:08:03.078Z,37.90
2022-12-03T18:10:30.847Z,40.57
2022-12-03T18:13:02.020Z,36.10
2022-12-03T18:15:30.625Z,35.13
2022-12-03T18:17:58.315Z,37.73
2022-12-03T18:20:26.205Z,36.27
2022-12-03T18:22:55.375Z,38.73
2022-12-03T18:25:23.111Z,36.27
2022-12-03T18:27:50.832Z,41.20
2022-12-03T18:30:18.805Z,39.20
2022-12-03T18:32:46.525Z,36.10
2022-12-03T18:35:14.322Z,43.30
2022-12-03T18:37:42.133Z,38.50
2022-12-03T18:40:19.799Z,40.40
2022-12-03T18:42:47.957Z,39.73
2022-12-03T18:45:16.779Z,38.97
2022-12-03T18:47:44.885Z,41.70
2022-12-03T18:50:13.569Z,40.53
2022-12-03T18:52:41.495Z,41.63
2022-12-03T18:55:14.838Z,37.47
2022-12-03T18:57:43.906Z,35.00
2022-12-03T19:00:13.885Z,40.13
2022-12-03T19:05:29.873Z,38.63
2022-12-03T19:07:57.674Z,42.10
2022-12-03T19:10:25.652Z,42.77
2022-12-03T19:12:54.719Z,38.17
2022-12-03T19:15:22.833Z,32.57
2022-12-03T19:17:51.491Z,37.50
2022-12-03T19:20:19.291Z,36.80
2022-12-03T19:22:47.009Z,35.67
2022-12-03T19:25:14.732Z,36.93
2022-12-03T19:27:42.449Z,34.53
2022-12-03T19:30:12.600Z,33.60
2022-12-03T19:32:40.285Z,36.20
2022-12-03T19:35:11.125Z,34.07
2022-12-03T19:37:38.930Z,34.00
2022-12-03T19:40:10.225Z,30.23
2022-12-03T19:42:37.991Z,31.87
2022-12-03T19:45:06.613Z,40.23
2022-12-03T19:47:36.278Z,33.07
2022-12-03T19:50:04.133Z,38.50
2022-12-03T19:52:32.148Z,36.47
2022-12-03T19:54:59.876Z,42.97
2022-12-03T19:57:27.598Z,35.83
2022-12-03T19:59:55.633Z,34.27
2022-12-03T20:02:23.703Z,30.83
2022-12-03T20:04:52.864Z,35.90
2022-12-03T20:07:20.624Z,36.13
2022-12-03T20:09:50.883Z,34.50
2022-12-03T20:12:18.713Z,35.00
2022-12-03T20:14:46.557Z,38.17
2022-12-03T20:17:14.305Z,32.23
2022-12-03T20:19:42.093Z,33.67
2022-12-03T20:22:11.188Z,35.10
2022-12-03T20:24:38.897Z,39.70
2022-12-03T20:27:06.643Z,41.07
2022-12-03T20:29:34.570Z,39.07
2022-12-03T20:32:03.990Z,45.07
2022-12-03T20:34:34.034Z,33.73
2022-12-03T20:37:01.732Z,41.40
2022-12-03T20:39:30.871Z,37.37
2022-12-03T20:41:58.913Z,39.20
2022-12-03T20:44:26.657Z,34.00
2022-12-03T20:46:54.366Z,36.10
2022-12-03T20:49:22.150Z,43.57
2022-12-03T20:51:51.330Z,45.83
2022-12-03T20:54:19.023Z,45.90
2022-12-03T20:56:48.147Z,42.97
2022-12-03T20:59:17.213Z,43.20
2022-12-03T21:01:46.755Z,42.37
2022-12-03T21:04:16.117Z,42.20
2022-12-03T21:06:43.953Z,49.20
2022-12-03T21:09:13.123Z,43.10
2022-12-03T21:11:42.320Z,45.37
2022-12-03T21:14:12.424Z,47.77
2022-12-03T21:19:29.882Z,41.70
2022-12-03T21:21:57.707Z,44.67
2022-12-03T21:24:25.626Z,44.30
2022-12-03T21:26:53.357Z,45.10
2022-12-03T21:29:22.492Z,49.07
2022-12-03T21:31:50.229Z,48.43
2022-12-03T21:34:17.981Z,50.07
2022-12-03T21:36:45.799Z,42.67
2022-12-03T21:39:13.536Z,47.87
2022-12-03T21:41:41.273Z,50.17
2022-12-03T21:44:30.383Z,53.93
2022-12-03T21:47:10.838Z,48.43
2022-12-03T21:49:41.976Z,48.47
2022-12-03T21:52:10.156Z,56.67
2022-12-03T21:54:37.875Z,54.80
2022-12-03T21:57:05.567Z,53.50
2022-12-03T21:59:34.740Z,61.37
2022-12-03T22:02:02.598Z,57.97
2022-12-03T22:04:30.360Z,54.03
2022-12-03T22:06:58.081Z,53.97
2022-12-03T22:09:26.913Z,57.77
2022-12-03T22:11:56.934Z,55.97
2022-12-03T22:14:24.743Z,54.90
2022-12-03T22:16:53.861Z,62.67
2022-12-03T22:19:23.044Z,58.03
2022-12-03T22:21:50.761Z,59.77
2022-12-03T22:24:19.242Z,55.10
2022-12-03T22:26:47.438Z,63.23
2022-12-03T22:29:15.175Z,65.37
2022-12-03T22:31:42.923Z,63.80
2022-12-03T22:34:12.256Z,61.40
2022-12-03T22:36:39.975Z,51.20
2022-12-03T22:39:07.717Z,62.00
2022-12-03T22:41:35.425Z,54.57
2022-12-03T22:44:03.165Z,58.63
2022-12-03T22:46:30.948Z,54.70
2022-12-03T22:49:04.972Z,51.50
2022-12-03T22:51:36.356Z,56.57
2022-12-03T22:54:04.303Z,50.63
2022-12-03T22:56:32.454Z,52.03
2022-12-03T22:59:03.299Z,56.07
2022-12-03T23:01:34.183Z,48.57
2022-12-03T23:04:03.193Z,53.57
2022-12-03T23:06:32.468Z,57.30
2022-12-03T23:09:01.640Z,53.47
2022-12-03T23:11:29.638Z,56.97
2022-12-03T23:13:58.890Z,54.40
2022-12-03T23:16:31.076Z,51.03
2022-12-03T23:19:00.195Z,52.33
2022-12-03T23:21:30.746Z,52.87
2022-12-03T23:23:58.979Z,57.07
2022-12-03T23:26:28.742Z,60.10
2022-12-03T23:28:56.886Z,58.40
2022-12-03T23:31:26.913Z,55.47
2022-12-03T23:33:55.820Z,57.23
2022-12-03T23:36:25.643Z,56.97
2022-12-03T23:38:53.543Z,62.50
2022-12-03T23:41:23.461Z,54.30
2022-12-03T23:43:52.905Z,55.20
2022-12-03T23:46:23.392Z,51.17
2022-12-03T23:48:51.781Z,56.60
2022-12-03T23:51:21.822Z,51.13
2022-12-03T23:53:49.786Z,52.30
2022-12-03T23:56:19.144Z,56.30
2022-12-03T23:58:48.031Z,56.60
